Time;durP1;ratioP1;P1;durP2;ratioP2;P2;SDS_P1;SDS_P2;PMS_P1;PMS_P2;Temp;Humidity;BMP_temperature;BMP_pressure;BME280_temperature;BME280_humidity;BME280_pressure;Samples;Min_cycle;Max_cycle;Signal;HPM_P1;HPM_P2
2023/01/25 00:02:08;;;;;;;2.40;2.20;;;;;;;;;;5055653;28;20029;-77
2023/01/25 00:04:34;;;;;;;2.85;2.50;;;;;;;;;;5056080;28;20033;-77
2023/01/25 00:06:59;;;;;;;3.85;2.58;;;;;;;;;;5055696;28;20376;-77
2023/01/25 00:09:25;;;;;;;2.90;2.58;;;;;;;;;;5055949;28;20025;-77
2023/01/25 00:11:52;;;;;;;2.90;2.45;;;;;;;;;;5021201;28;20476;-77
2023/01/25 00:14:17;;;;;;;2.38;2.17;;;;;;;;;;5020525;28;20033;-76
2023/01/25 00:16:42;;;;;;;2.53;2.22;;;;;;;;;;5037672;28;20044;-77
2023/01/25 00:19:09;;;;;;;3.10;2.67;;;;;;;;;;4985332;28;20447;-78
2023/01/25 00:21:35;;;;;;;2.78;2.58;;;;;;;;;;5035506;28;20026;-77
2023/01/25 00:24:01;;;;;;;2.60;2.35;;;;;;;;;;5035500;28;20148;-77
2023/01/25 00:26:29;;;;;;;2.78;2.40;;;;;;;;;;5035394;28;20040;-77
2023/01/25 00:28:54;;;;;;;4.68;2.70;;;;;;;;;;5035309;28;20025;-77
2023/01/25 00:31:34;;;;;;;2.80;2.35;;;;;;;;;;5035793;28;20133;-77
2023/01/25 00:34:23;;;;;;;2.60;2.22;;;;;;;;;;5035380;28;20029;-77
2023/01/25 00:36:56;;;;;;;2.35;2.15;;;;;;;;;;5035503;28;20036;-77
2023/01/25 00:39:21;;;;;;;2.40;2.20;;;;;;;;;;5017579;28;20032;-78
2023/01/25 00:41:46;;;;;;;3.05;2.40;;;;;;;;;;5017638;28;20041;-77
2023/01/25 00:44:12;;;;;;;2.47;2.22;;;;;;;;;;5035029;28;20022;-79
2023/01/25 00:46:38;;;;;;;3.10;2.33;;;;;;;;;;5000998;28;20029;-79
2023/01/25 00:49:04;;;;;;;5.53;2.45;;;;;;;;;;5035099;28;20025;-79
2023/01/25 00:51:29;;;;;;;2.47;2.20;;;;;;;;;;5000949;28;20036;-79
2023/01/25 00:53:55;;;;;;;2.50;2.30;;;;;;;;;;5035245;28;20375;-78
2023/01/25 00:56:20;;;;;;;3.00;2.30;;;;;;;;;;5034890;28;20025;-79
2023/01/25 00:58:45;;;;;;;2.85;2.53;;;;;;;;;;5017445;28;20399;-79
2023/01/25 01:01:12;;;;;;;2.65;2.40;;;;;;;;;;5017393;28;20184;-79
2023/01/25 01:03:37;;;;;;;2.55;2.35;;;;;;;;;;5017243;28;20108;-79
2023/01/25 01:06:09;;;;;;;2.30;2.10;;;;;;;;;;5017334;28;20418;-79
2023/01/25 01:08:37;;;;;;;2.90;2.50;;;;;;;;;;5017103;28;20018;-78
2023/01/25 01:11:05;;;;;;;3.45;2.60;;;;;;;;;;5000274;28;20472;-79
2023/01/25 01:13:31;;;;;;;2.65;2.38;;;;;;;;;;5016287;28;20026;-78
2023/01/25 01:15:59;;;;;;;3.40;2.50;;;;;;;;;;5016922;28;20109;-78
2023/01/25 01:18:25;;;;;;;2.70;2.40;;;;;;;;;;5016716;28;20042;-78
2023/01/25 01:20:51;;;;;;;2.67;2.47;;;;;;;;;;5000705;28;20049;-79
2023/01/25 01:23:17;;;;;;;2.78;2.50;;;;;;;;;;5034240;28;20477;-79
2023/01/25 01:25:42;;;;;;;2.88;2.55;;;;;;;;;;5034087;28;20041;-78
2023/01/25 01:28:07;;;;;;;2.90;2.40;;;;;;;;;;5034240;28;20492;-78
2023/01/25 01:30:33;;;;;;;4.10;2.55;;;;;;;;;;5000255;28;20366;-78
2023/01/25 01:32:58;;;;;;;2.70;2.50;;;;;;;;;;5016406;28;20025;-77
2023/01/25 01:35:23;;;;;;;2.88;2.50;;;;;;;;;;5016568;28;20041;-78
2023/01/25 01:37:49;;;;;;;3.15;2.65;;;;;;;;;;5016686;28;20092;-77
2023/01/25 01:40:16;;;;;;;2.65;2.42;;;;;;;;;;5034048;28;20514;-78
2023/01/25 01:42:58;;;;;;;3.08;2.80;;;;;;;;;;5016285;28;20037;-77
2023/01/25 01:45:42;;;;;;;2.80;2.50;;;;;;;;;;5034211;28;20029;-77
2023/01/25 01:48:33;;;;;;;4.05;2.65;;;;;;;;;;5034169;28;20021;-77
2023/01/25 01:51:07;;;;;;;2.95;2.63;;;;;;;;;;5033810;28;20029;-78
2023/01/25 01:53:33;;;;;;;2.90;2.60;;;;;;;;;;5016136;28;20362;-78
2023/01/25 01:56:02;;;;;;;3.25;2.70;;;;;;;;;;5033763;28;20034;-78
2023/01/25 01:58:27;;;;;;;2.67;2.47;;;;;;;;;;5016424;28;20030;-77
2023/01/25 02:00:53;;;;;;;2.95;2.60;;;;;;;;;;5016091;28;20021;-77
2023/01/25 02:03:18;;;;;;;2.85;2.60;;;;;;;;;;5033556;28;20030;-78
2023/01/25 02:05:56;;;;;;;2.60;2.40;;;;;;;;;;5015990;28;20029;-78
2023/01/25 02:08:22;;;;;;;3.25;2.42;;;;;;;;;;5015904;28;20089;-78
2023/01/25 02:10:48;;;;;;;3.00;2.70;;;;;;;;;;5016009;28;20096;-78
2023/01/25 02:13:13;;;;;;;3.72;2.80;;;;;;;;;;5033900;28;20449;-78
2023/01/25 02:15:44;;;;;;;3.10;2.67;;;;;;;;;;5033467;28;20079;-78
2023/01/25 02:18:10;;;;;;;2.70;2.50;;;;;;;;;;5015734;28;20041;-78
2023/01/25 02:20:47;;;;;;;2.85;2.63;;;;;;;;;;5015660;28;20049;-78
2023/01/25 02:23:31;;;;;;;4.25;2.97;;;;;;;;;;4999072;28;20028;-78
2023/01/25 02:25:59;;;;;;;3.35;3.05;;;;;;;;;;5033310;28;20033;-78
2023/01/25 02:28:32;;;;;;;3.10;2.80;;;;;;;;;;5015417;28;20476;-78
2023/01/25 02:30:58;;;;;;;3.55;2.80;;;;;;;;;;4999190;28;20037;-78
2023/01/25 02:33:25;;;;;;;2.80;2.60;;;;;;;;;;5033154;28;20030;-77
2023/01/25 02:36:18;;;;;;;3.03;2.72;;;;;;;;;;5015666;28;20427;-78
2023/01/25 02:39:08;;;;;;;2.90;2.43;;;;;;;;;;5031865;28;20033;-77
2023/01/25 02:41:39;;;;;;;2.63;2.42;;;;;;;;;;5005875;28;20041;-77
2023/01/25 02:44:08;;;;;;;3.22;2.60;;;;;;;;;;5033132;28;20032;-77
2023/01/25 02:46:35;;;;;;;2.70;2.50;;;;;;;;;;5033158;28;20036;-77
2023/01/25 02:49:02;;;;;;;3.28;2.58;;;;;;;;;;5033154;28;20037;-78
2023/01/25 02:51:30;;;;;;;3.17;2.88;;;;;;;;;;5015669;28;20476;-77
2023/01/25 02:53:56;;;;;;;3.10;2.80;;;;;;;;;;5033077;28;20033;-77
2023/01/25 02:56:22;;;;;;;2.78;2.47;;;;;;;;;;5015262;28;20463;-77
2023/01/25 02:58:48;;;;;;;3.92;2.67;;;;;;;;;;4998975;28;20056;-78
2023/01/25 03:01:13;;;;;;;2.65;2.45;;;;;;;;;;5032995;28;20056;-77
2023/01/25 03:03:39;;;;;;;2.88;2.60;;;;;;;;;;5032795;28;20476;-77
2023/01/25 03:06:06;;;;;;;3.10;2.80;;;;;;;;;;5015346;28;20383;-78
2023/01/25 03:08:31;;;;;;;3.30;2.65;;;;;;;;;;5032980;28;20034;-78
2023/01/25 03:10:58;;;;;;;2.90;2.60;;;;;;;;;;5033137;28;20087;-78
2023/01/25 03:13:24;;;;;;;3.03;2.70;;;;;;;;;;5015227;28;20433;-77
2023/01/25 03:15:49;;;;;;;3.10;2.80;;;;;;;;;;5032673;28;20033;-77
2023/01/25 03:18:15;;;;;;;3.97;2.53;;;;;;;;;;5045000;28;20106;-77
2023/01/25 03:20:40;;;;;;;3.10;2.80;;;;;;;;;;5035343;28;20029;-77
2023/01/25 03:23:06;;;;;;;4.75;2.72;;;;;;;;;;5052484;28;20067;-76
2023/01/25 03:25:31;;;;;;;3.20;2.90;;;;;;;;;;5052598;28;20401;-78
2023/01/25 03:27:56;;;;;;;5.35;2.80;;;;;;;;;;5034601;28;20028;-77
2023/01/25 03:30:22;;;;;;;3.67;3.13;;;;;;;;;;5018247;28;20047;-77
2023/01/25 03:32:47;;;;;;;2.80;2.60;;;;;;;;;;5018131;28;20036;-77
2023/01/25 03:35:12;;;;;;;3.78;2.50;;;;;;;;;;5035016;28;20112;-77
2023/01/25 03:37:38;;;;;;;3.00;2.70;;;;;;;;;;5034782;28;20035;-77
2023/01/25 03:40:04;;;;;;;4.13;2.67;;;;;;;;;;5034619;28;20025;-77
2023/01/25 03:42:29;;;;;;;3.20;2.67;;;;;;;;;;5053024;28;20035;-77
2023/01/25 03:44:55;;;;;;;3.75;2.78;;;;;;;;;;5018107;28;20038;-77
2023/01/25 03:47:20;;;;;;;3.03;2.72;;;;;;;;;;5052843;28;20025;-77
2023/01/25 03:49:45;;;;;;;3.13;2.83;;;;;;;;;;5037371;28;20053;-77
2023/01/25 03:52:11;;;;;;;3.45;3.15;;;;;;;;;;5038211;28;20025;-76
2023/01/25 03:54:36;;;;;;;3.20;2.90;;;;;;;;;;5038199;28;20036;-77
2023/01/25 03:57:02;;;;;;;3.63;3.00;;;;;;;;;;5055871;28;20171;-77
2023/01/25 03:59:27;;;;;;;3.30;2.90;;;;;;;;;;5038132;28;20040;-77
2023/01/25 04:01:52;;;;;;;5.15;2.83;;;;;;;;;;5037977;28;20033;-78
2023/01/25 04:04:18;;;;;;;3.08;2.70;;;;;;;;;;5038016;28;20155;-78
2023/01/25 04:06:43;;;;;;;4.10;2.80;;;;;;;;;;5055704;28;20365;-77
2023/01/25 04:09:09;;;;;;;3.20;2.88;;;;;;;;;;5021545;28;20062;-77
2023/01/25 04:11:34;;;;;;;3.55;2.85;;;;;;;;;;5055805;28;20411;-78
2023/01/25 04:14:00;;;;;;;3.47;2.90;;;;;;;;;;5037901;28;20040;-78
2023/01/25 04:16:26;;;;;;;4.55;2.90;;;;;;;;;;5037913;28;20029;-78
2023/01/25 04:18:51;;;;;;;3.15;2.80;;;;;;;;;;5006143;28;20057;-78
2023/01/25 04:21:16;;;;;;;3.50;2.90;;;;;;;;;;5017867;28;20029;-78
2023/01/25 04:23:42;;;;;;;3.38;3.03;;;;;;;;;;5001365;28;20037;-77
2023/01/25 04:26:14;;;;;;;3.45;3.10;;;;;;;;;;5018239;28;20040;-78
2023/01/25 04:28:39;;;;;;;3.80;3.08;;;;;;;;;;5018108;28;20056;-77
2023/01/25 04:31:05;;;;;;;3.42;3.10;;;;;;;;;;5017831;28;20076;-78
2023/01/25 04:33:31;;;;;;;3.50;3.05;;;;;;;;;;5035633;28;20025;-77
2023/01/25 04:35:56;;;;;;;3.22;2.92;;;;;;;;;;5017637;28;20464;-77
2023/01/25 04:38:22;;;;;;;3.58;3.22;;;;;;;;;;5001267;28;20064;-77
2023/01/25 04:40:47;;;;;;;3.65;3.35;;;;;;;;;;5001321;28;20388;-78
2023/01/25 04:43:17;;;;;;;4.40;3.40;;;;;;;;;;5036334;28;20033;-78
2023/01/25 04:45:43;;;;;;;4.03;3.22;;;;;;;;;;5017702;28;20573;-78
2023/01/25 04:48:10;;;;;;;3.80;3.00;;;;;;;;;;5035353;28;20033;-78
2023/01/25 04:50:36;;;;;;;3.35;3.05;;;;;;;;;;5017651;28;20024;-78
2023/01/25 04:53:02;;;;;;;4.25;3.53;;;;;;;;;;5035117;28;20109;-78
2023/01/25 04:55:27;;;;;;;3.50;3.20;;;;;;;;;;5017728;28;20599;-77
2023/01/25 04:57:53;;;;;;;3.47;3.15;;;;;;;;;;5035215;28;20057;-77
2023/01/25 05:00:19;;;;;;;6.97;3.50;;;;;;;;;;5034240;28;20033;-78
2023/01/25 05:02:44;;;;;;;3.90;3.28;;;;;;;;;;5017479;28;20021;-77
2023/01/25 05:05:10;;;;;;;3.33;3.03;;;;;;;;;;5035681;28;20353;-77
2023/01/25 05:07:35;;;;;;;3.88;3.15;;;;;;;;;;5035308;28;20040;-78
2023/01/25 05:10:01;;;;;;;3.90;3.00;;;;;;;;;;5017399;28;20036;-78
2023/01/25 05:12:26;;;;;;;4.43;3.05;;;;;;;;;;5035521;28;20040;-78
2023/01/25 05:14:52;;;;;;;3.75;3.30;;;;;;;;;;5035133;28;20029;-78
2023/01/25 05:17:17;;;;;;;3.97;3.50;;;;;;;;;;4986870;28;20128;-77
2023/01/25 05:19:42;;;;;;;4.45;3.30;;;;;;;;;;5037024;28;20083;-77
2023/01/25 05:22:16;;;;;;;3.90;3.35;;;;;;;;;;5054697;28;20039;-76
2023/01/25 05:24:41;;;;;;;3.75;3.42;;;;;;;;;;5037134;28;20020;-77
2023/01/25 05:27:08;;;;;;;7.68;4.10;;;;;;;;;;5020182;28;20043;-78
2023/01/25 05:29:35;;;;;;;4.68;3.58;;;;;;;;;;5036947;28;20392;-77
2023/01/25 05:32:06;;;;;;;4.95;3.63;;;;;;;;;;5020245;28;20021;-78
2023/01/25 05:34:32;;;;;;;5.22;3.97;;;;;;;;;;5036906;28;20368;-78
2023/01/25 05:36:57;;;;;;;7.15;4.05;;;;;;;;;;5036652;28;20033;-77
2023/01/25 05:39:23;;;;;;;9.10;3.83;;;;;;;;;;5036601;28;20396;-77
2023/01/25 05:41:48;;;;;;;5.80;3.63;;;;;;;;;;5020065;28;20029;-77
2023/01/25 05:44:14;;;;;;;7.30;3.97;;;;;;;;;;5054272;28;20419;-77
2023/01/25 05:46:39;;;;;;;6.70;3.30;;;;;;;;;;5054537;28;20032;-77
2023/01/25 05:49:05;;;;;;;7.82;3.60;;;;;;;;;;5019893;28;20048;-77
2023/01/25 05:51:30;;;;;;;5.22;3.30;;;;;;;;;;5054442;28;20080;-77
2023/01/25 05:53:56;;;;;;;5.40;3.53;;;;;;;;;;5052507;28;20017;-78
2023/01/25 05:56:22;;;;;;;5.10;3.05;;;;;;;;;;5036028;28;20510;-77
2023/01/25 05:58:55;;;;;;;11.90;3.50;;;;;;;;;;5033468;28;20104;-77
2023/01/25 06:01:20;;;;;;;5.30;3.38;;;;;;;;;;5019505;28;20024;-78
2023/01/25 06:03:46;;;;;;;6.03;3.25;;;;;;;;;;5035797;28;20391;-78
2023/01/25 06:06:11;;;;;;;4.57;3.33;;;;;;;;;;5053766;28;20395;-77
2023/01/25 06:08:38;;;;;;;11.05;3.50;;;;;;;;;;5053490;28;20059;-78
2023/01/25 06:11:08;;;;;;;9.57;4.22;;;;;;;;;;5035999;28;20033;-78
2023/01/25 06:13:33;;;;;;;7.47;3.88;;;;;;;;;;5034891;28;20032;-79
2023/01/25 06:15:59;;;;;;;12.32;4.00;;;;;;;;;;5053443;28;20033;-78
2023/01/25 06:18:24;;;;;;;10.07;4.38;;;;;;;;;;5007553;28;20058;-78
2023/01/25 06:20:50;;;;;;;14.13;4.10;;;;;;;;;;5033691;28;20029;-79
2023/01/25 06:23:16;;;;;;;13.45;3.95;;;;;;;;;;5033345;28;20026;-79
2023/01/25 06:25:41;;;;;;;8.07;4.30;;;;;;;;;;5033635;28;20098;-78
2023/01/25 06:28:06;;;;;;;10.40;3.78;;;;;;;;;;5016093;28;20130;-78
2023/01/25 06:30:32;;;;;;;6.60;3.70;;;;;;;;;;5015974;28;20040;-79
2023/01/25 06:32:58;;;;;;;5.93;3.67;;;;;;;;;;4999967;28;20057;-78
2023/01/25 06:35:23;;;;;;;8.75;4.00;;;;;;;;;;5016407;28;20108;-78
2023/01/25 06:37:48;;;;;;;6.38;4.10;;;;;;;;;;5015856;28;20029;-78
2023/01/25 06:40:14;;;;;;;6.95;4.18;;;;;;;;;;4999872;28;20468;-78
2023/01/25 06:42:39;;;;;;;6.15;3.80;;;;;;;;;;5015961;28;20041;-78
2023/01/25 06:45:06;;;;;;;5.18;3.75;;;;;;;;;;5015739;28;20030;-77
2023/01/25 06:47:31;;;;;;;7.10;3.78;;;;;;;;;;5015690;28;20052;-78
2023/01/25 06:49:56;;;;;;;5.97;3.97;;;;;;;;;;5015469;28;20037;-78
2023/01/25 06:52:22;;;;;;;5.55;4.15;;;;;;;;;;5015578;28;20083;-78
2023/01/25 06:54:47;;;;;;;7.10;3.47;;;;;;;;;;5033263;28;20029;-78
2023/01/25 06:57:12;;;;;;;5.35;3.70;;;;;;;;;;4999207;28;20037;-78
2023/01/25 06:59:38;;;;;;;10.35;4.25;;;;;;;;;;5033293;28;20527;-78
2023/01/25 07:02:03;;;;;;;5.85;3.85;;;;;;;;;;5033129;28;20034;-78
2023/01/25 07:04:29;;;;;;;4.97;3.88;;;;;;;;;;5015684;28;20044;-78
2023/01/25 07:06:55;;;;;;;6.65;4.43;;;;;;;;;;5033653;28;20026;-79
2023/01/25 07:09:23;;;;;;;10.43;3.90;;;;;;;;;;5032683;28;20530;-85
2023/01/25 07:11:49;;;;;;;4.85;3.80;;;;;;;;;;5009563;28;20097;-83
2023/01/25 07:14:14;;;;;;;4.15;3.50;;;;;;;;;;5051120;28;20036;-80
2023/01/25 07:16:40;;;;;;;7.68;3.50;;;;;;;;;;5039047;28;20025;-85
2023/01/25 07:19:06;;;;;;;6.45;3.83;;;;;;;;;;5039549;28;20063;-86
2023/01/25 07:21:31;;;;;;;5.05;3.63;;;;;;;;;;5049183;28;20058;-85
2023/01/25 07:24:03;;;;;;;5.82;3.67;;;;;;;;;;5045134;28;20029;-80
2023/01/25 07:26:30;;;;;;;5.35;3.60;;;;;;;;;;5009887;28;20036;-82
2023/01/25 07:28:56;;;;;;;6.45;3.40;;;;;;;;;;5024930;28;20057;-83
2023/01/25 07:31:22;;;;;;;5.55;3.78;;;;;;;;;;5007560;28;20064;-84
2023/01/25 07:33:52;;;;;;;6.53;3.05;;;;;;;;;;5039734;28;20053;-85
2023/01/25 07:36:18;;;;;;;6.22;4.07;;;;;;;;;;5042349;28;20025;-85
2023/01/25 07:38:44;;;;;;;4.15;3.45;;;;;;;;;;5022958;28;20033;-88
2023/01/25 07:41:10;;;;;;;4.68;3.33;;;;;;;;;;5023441;28;20475;-86
2023/01/25 07:43:35;;;;;;;4.97;3.30;;;;;;;;;;5009941;28;20033;-86
2023/01/25 07:46:06;;;;;;;6.95;3.88;;;;;;;;;;5019277;28;20037;-86
2023/01/25 07:48:32;;;;;;;6.10;3.97;;;;;;;;;;5019355;28;20074;-86
2023/01/25 07:51:11;;;;;;;4.25;3.40;;;;;;;;;;4987503;28;20026;-87
2023/01/25 07:53:41;;;;;;;4.03;3.53;;;;;;;;;;5020534;28;20030;-86
2023/01/25 07:56:08;;;;;;;4.38;3.70;;;;;;;;;;5019173;28;20118;-85
2023/01/25 07:58:34;;;;;;;4.75;3.80;;;;;;;;;;5019346;28;20033;-86
2023/01/25 08:01:10;;;;;;;7.15;3.70;;;;;;;;;;5020895;28;20518;-83
2023/01/25 08:03:36;;;;;;;4.45;3.58;;;;;;;;;;5019284;28;20060;-85
2023/01/25 08:06:04;;;;;;;4.72;3.88;;;;;;;;;;5019894;28;20111;-86
2023/01/25 08:08:33;;;;;;;5.47;3.90;;;;;;;;;;5030640;28;20170;-84
2023/01/25 08:11:14;;;;;;;4.35;3.70;;;;;;;;;;5023410;28;20115;-84
2023/01/25 08:13:40;;;;;;;6.65;3.50;;;;;;;;;;5021883;28;20029;-80
2023/01/25 08:16:05;;;;;;;4.93;3.58;;;;;;;;;;5038667;28;20395;-80
2023/01/25 08:18:31;;;;;;;4.38;3.42;;;;;;;;;;5021840;28;20064;-81
2023/01/25 08:20:58;;;;;;;14.80;3.42;;;;;;;;;;5056675;28;20411;-83
2023/01/25 08:23:25;;;;;;;4.07;3.20;;;;;;;;;;5006110;28;20454;-81
2023/01/25 08:25:51;;;;;;;4.13;3.60;;;;;;;;;;5022078;28;20056;-80
2023/01/25 08:28:16;;;;;;;31.35;3.90;;;;;;;;;;5002250;28;20044;-81
2023/01/25 08:30:42;;;;;;;4.70;3.67;;;;;;;;;;5035931;28;20029;-80
2023/01/25 08:33:07;;;;;;;7.03;3.40;;;;;;;;;;5025257;28;20138;-81
2023/01/25 08:35:36;;;;;;;4.05;3.63;;;;;;;;;;5055393;28;20476;-78
2023/01/25 08:38:02;;;;;;;4.47;3.38;;;;;;;;;;5038234;28;20041;-80
2023/01/25 08:40:28;;;;;;;6.07;3.75;;;;;;;;;;5037947;28;20025;-80
2023/01/25 08:42:53;;;;;;;4.07;3.28;;;;;;;;;;5037945;28;20033;-78
2023/01/25 08:45:19;;;;;;;4.43;3.40;;;;;;;;;;5055913;28;20373;-82
2023/01/25 08:47:44;;;;;;;3.83;3.30;;;;;;;;;;5033971;28;20033;-83
2023/01/25 08:50:10;;;;;;;4.30;3.35;;;;;;;;;;5037307;28;20029;-86
2023/01/25 08:52:35;;;;;;;4.95;4.00;;;;;;;;;;4987583;28;20490;-82
2023/01/25 08:55:00;;;;;;;3.75;3.35;;;;;;;;;;5022225;28;20041;-81
2023/01/25 08:57:26;;;;;;;4.25;3.65;;;;;;;;;;5021552;28;20040;-83
2023/01/25 08:59:51;;;;;;;5.80;3.95;;;;;;;;;;5055895;28;20020;-82
2023/01/25 09:02:18;;;;;;;4.50;3.60;;;;;;;;;;5005552;28;20422;-83
2023/01/25 09:04:43;;;;;;;5.03;3.83;;;;;;;;;;5022265;28;20453;-82
2023/01/25 09:07:09;;;;;;;3.90;3.47;;;;;;;;;;5038533;28;20057;-77
2023/01/25 09:09:34;;;;;;;4.57;3.95;;;;;;;;;;5057541;28;20039;-79
2023/01/25 09:12:00;;;;;;;5.72;3.92;;;;;;;;;;5029158;28;20037;-76
2023/01/25 09:14:25;;;;;;;6.28;4.18;;;;;;;;;;5035374;28;20063;-85
2023/01/25 09:16:51;;;;;;;4.47;4.00;;;;;;;;;;5029831;28;20036;-84
2023/01/25 09:19:16;;;;;;;4.80;3.75;;;;;;;;;;5038274;28;20077;-84
2023/01/25 09:21:42;;;;;;;5.80;3.83;;;;;;;;;;5039011;28;20403;-90
2023/01/25 09:24:07;;;;;;;4.63;4.03;;;;;;;;;;5022415;28;20033;-90
2023/01/25 09:26:35;;;;;;;6.85;3.97;;;;;;;;;;5028899;28;20060;-83
2023/01/25 09:29:02;;;;;;;6.85;3.97;;;;;;;;;;4986757;28;20403;-83
2023/01/25 09:31:28;;;;;;;5.22;3.85;;;;;;;;;;5001624;28;20033;-84
2023/01/25 09:33:55;;;;;;;5.00;3.90;;;;;;;;;;5017836;28;20037;-82
2023/01/25 09:36:20;;;;;;;5.97;3.97;;;;;;;;;;5034892;28;20037;-84
2023/01/25 09:38:46;;;;;;;7.10;4.25;;;;;;;;;;5017155;28;20041;-82
2023/01/25 09:41:43;;;;;;;5.05;3.92;;;;;;;;;;5039101;28;20499;-82
2023/01/25 09:44:22;;;;;;;8.25;4.68;;;;;;;;;;5056723;28;20072;-80
2023/01/25 09:46:51;;;;;;;7.00;4.68;;;;;;;;;;5026583;28;20048;-85
2023/01/25 09:49:34;;;;;;;5.60;3.97;;;;;;;;;;5018176;28;20065;-81
2023/01/25 09:52:21;;;;;;;4.55;3.95;;;;;;;;;;5035046;28;20025;-83
2023/01/25 09:54:47;;;;;;;7.38;4.60;;;;;;;;;;5016745;28;20036;-81
2023/01/25 09:57:19;;;;;;;8.65;4.75;;;;;;;;;;4999391;28;20029;-80
2023/01/25 09:59:46;;;;;;;6.80;4.60;;;;;;;;;;5025553;28;20028;-80
2023/01/25 10:02:17;;;;;;;6.85;4.57;;;;;;;;;;5030673;28;20099;-81
2023/01/25 10:04:43;;;;;;;6.07;4.65;;;;;;;;;;5000434;28;20037;-83
2023/01/25 10:07:18;;;;;;;8.82;4.13;;;;;;;;;;5033803;28;20083;-77
2023/01/25 10:09:50;;;;;;;7.88;4.63;;;;;;;;;;5016416;28;20025;-79
2023/01/25 10:12:21;;;;;;;7.28;4.68;;;;;;;;;;5015848;28;20483;-77
2023/01/25 10:14:47;;;;;;;5.43;4.28;;;;;;;;;;5016168;28;20092;-79
2023/01/25 10:17:30;;;;;;;9.80;4.28;;;;;;;;;;5033038;28;20025;-78
2023/01/25 10:20:04;;;;;;;14.32;4.82;;;;;;;;;;5033453;28;20398;-77
2023/01/25 10:22:35;;;;;;;8.57;4.63;;;;;;;;;;5033134;28;20025;-78
2023/01/25 10:25:22;;;;;;;13.20;4.47;;;;;;;;;;5015684;28;20029;-77
2023/01/25 10:27:54;;;;;;;7.00;4.13;;;;;;;;;;5015946;28;20029;-77
2023/01/25 10:30:29;;;;;;;16.63;4.20;;;;;;;;;;5015932;28;20025;-77
2023/01/25 10:32:57;;;;;;;8.88;3.72;;;;;;;;;;5015617;28;20071;-78
2023/01/25 10:35:28;;;;;;;6.18;4.00;;;;;;;;;;4999024;28;20044;-78
2023/01/25 10:37:53;;;;;;;8.60;4.13;;;;;;;;;;5023493;28;20110;-80
2023/01/25 10:40:23;;;;;;;8.07;4.10;;;;;;;;;;5040048;28;20065;-77
2023/01/25 10:42:53;;;;;;;7.15;4.20;;;;;;;;;;5017730;28;20041;-77
2023/01/25 10:45:19;;;;;;;12.50;4.88;;;;;;;;;;5034847;28;20203;-78
2023/01/25 10:47:50;;;;;;;5.20;4.32;;;;;;;;;;5052867;28;20558;-78
2023/01/25 10:50:40;;;;;;;6.05;4.63;;;;;;;;;;5035166;28;20031;-78
2023/01/25 10:53:34;;;;;;;7.90;4.60;;;;;;;;;;5052607;28;20029;-78
2023/01/25 10:56:20;;;;;;;7.78;4.38;;;;;;;;;;5018497;28;20141;-79
2023/01/25 10:58:48;;;;;;;7.57;4.47;;;;;;;;;;5034576;28;20025;-79
2023/01/25 11:01:31;;;;;;;6.60;4.65;;;;;;;;;;5035215;28;20063;-78
2023/01/25 11:03:57;;;;;;;7.15;4.28;;;;;;;;;;5018727;28;20063;-82
2023/01/25 11:06:34;;;;;;;10.27;4.13;;;;;;;;;;5035327;28;20021;-82
2023/01/25 11:09:20;;;;;;;10.05;4.78;;;;;;;;;;5018658;28;20091;-76
2023/01/25 11:12:17;;;;;;;5.82;4.18;;;;;;;;;;5018041;28;20484;-76
2023/01/25 11:14:43;;;;;;;5.10;4.28;;;;;;;;;;5034080;28;20087;-81
2023/01/25 11:17:25;;;;;;;10.45;4.85;;;;;;;;;;5036374;28;20028;-85
2023/01/25 11:20:21;;;;;;;6.57;4.97;;;;;;;;;;5020723;28;20029;-82
2023/01/25 11:22:51;;;;;;;6.30;4.72;;;;;;;;;;5036667;28;20029;-82
2023/01/25 11:25:33;;;;;;;13.23;5.00;;;;;;;;;;5053994;28;20036;-82
2023/01/25 11:28:21;;;;;;;11.13;5.00;;;;;;;;;;5053966;28;20032;-84
2023/01/25 11:30:48;;;;;;;7.72;5.60;;;;;;;;;;5035824;28;20117;-82
2023/01/25 11:33:15;;;;;;;7.05;5.07;;;;;;;;;;5053744;28;20025;-82
2023/01/25 11:36:00;;;;;;;5.75;4.43;;;;;;;;;;5018466;28;20394;-78
2023/01/25 11:38:25;;;;;;;6.45;4.85;;;;;;;;;;5018503;28;20430;-78
2023/01/25 11:41:29;;;;;;;10.40;4.90;;;;;;;;;;5035257;28;20083;-79
2023/01/25 11:44:22;;;;;;;7.75;4.90;;;;;;;;;;5011134;28;20148;-79
2023/01/25 11:47:12;;;;;;;10.20;5.10;;;;;;;;;;4993792;28;20036;-79
2023/01/25 11:49:46;;;;;;;7.60;5.20;;;;;;;;;;4977598;28;20128;-79
2023/01/25 11:52:26;;;;;;;12.82;4.75;;;;;;;;;;5010096;28;20101;-78
2023/01/25 11:55:09;;;;;;;6.43;5.00;;;;;;;;;;5010045;28;20485;-79
2023/01/25 11:57:42;;;;;;;8.20;5.28;;;;;;;;;;4977907;28;20037;-79
2023/01/25 12:00:16;;;;;;;;;;;;;;;;;;4994049;28;20034;-80
2023/01/25 12:02:43;;;;;;;7.00;5.47;;;;;;;;;;5010076;28;19913;-79
2023/01/25 12:05:27;;;;;;;5.15;4.65;;;;;;;;;;5010172;28;20037;-80
2023/01/25 12:08:20;;;;;;;6.72;5.00;;;;;;;;;;4977481;28;20428;-79
2023/01/25 12:11:39;;;;;;;8.65;4.78;;;;;;;;;;4994812;28;20026;-80
2023/01/25 12:14:33;;;;;;;7.78;5.15;;;;;;;;;;4960154;28;20055;-79
2023/01/25 12:17:04;;;;;;;8.37;5.20;;;;;;;;;;4956526;28;20178;-80
2023/01/25 12:19:59;;;;;;;7.38;5.45;;;;;;;;;;4974015;28;20821;-79
2023/01/25 12:22:36;;;;;;;7.43;5.25;;;;;;;;;;4973997;28;20134;-80
2023/01/25 12:25:20;;;;;;;6.35;4.82;;;;;;;;;;4974297;28;20477;-80
2023/01/25 12:28:14;;;;;;;7.75;5.13;;;;;;;;;;4974099;28;20027;-80
2023/01/25 12:30:55;;;;;;;5.70;4.65;;;;;;;;;;4973838;28;20037;-80
2023/01/25 12:33:37;;;;;;;7.65;5.15;;;;;;;;;;4974110;28;20089;-80
2023/01/25 12:36:12;;;;;;;7.40;5.32;;;;;;;;;;4974065;28;20035;-79
2023/01/25 12:38:47;;;;;;;8.48;5.28;;;;;;;;;;4974051;28;20114;-79
2023/01/25 12:41:27;;;;;;;6.35;4.78;;;;;;;;;;4973762;28;20037;-81
2023/01/25 12:44:02;;;;;;;7.70;5.40;;;;;;;;;;4974351;28;20533;-81
2023/01/25 12:46:38;;;;;;;6.78;5.32;;;;;;;;;;4973636;28;20062;-80
2023/01/25 12:49:10;;;;;;;7.13;5.35;;;;;;;;;;5031317;28;20480;-80
2023/01/25 12:51:38;;;;;;;7.45;5.53;;;;;;;;;;5020638;28;20086;-78
2023/01/25 12:54:15;;;;;;;7.38;5.65;;;;;;;;;;5036596;28;20514;-79
2023/01/25 12:56:46;;;;;;;8.30;5.55;;;;;;;;;;5020622;28;20051;-79
2023/01/25 12:59:27;;;;;;;8.18;6.05;;;;;;;;;;5037143;28;20111;-79
2023/01/25 13:01:57;;;;;;;7.55;5.65;;;;;;;;;;5054222;28;20082;-79
2023/01/25 13:04:41;;;;;;;6.78;5.43;;;;;;;;;;5039768;28;20021;-81
2023/01/25 13:07:16;;;;;;;8.52;6.05;;;;;;;;;;5054200;28;20437;-80
2023/01/25 13:10:09;;;;;;;9.10;6.32;;;;;;;;;;5036988;28;20044;-79
2023/01/25 13:12:58;;;;;;;9.85;5.60;;;;;;;;;;5037130;28;20084;-79
2023/01/25 13:15:41;;;;;;;7.20;5.68;;;;;;;;;;5036605;28;20029;-81
2023/01/25 13:18:29;;;;;;;7.90;5.35;;;;;;;;;;5029556;28;20042;-80
2023/01/25 13:20:55;;;;;;;7.25;5.70;;;;;;;;;;5034499;28;20033;-79
2023/01/25 13:23:33;;;;;;;8.63;6.18;;;;;;;;;;5034993;28;20028;-77
2023/01/25 13:26:21;;;;;;;7.50;5.65;;;;;;;;;;5016999;28;20108;-81
2023/01/25 13:28:56;;;;;;;8.63;5.32;;;;;;;;;;5034678;28;20017;-80
2023/01/25 13:31:37;;;;;;;6.53;5.30;;;;;;;;;;5016814;28;20044;-80
2023/01/25 13:34:05;;;;;;;7.75;5.30;;;;;;;;;;5035993;28;20472;-79
2023/01/25 13:36:40;;;;;;;7.65;5.28;;;;;;;;;;5018276;28;20030;-81
2023/01/25 13:39:24;;;;;;;6.82;5.55;;;;;;;;;;5037287;28;20021;-81
2023/01/25 13:42:07;;;;;;;8.00;5.25;;;;;;;;;;5036476;28;20033;-81
2023/01/25 13:44:35;;;;;;;12.82;6.03;;;;;;;;;;5038387;28;20040;-81
2023/01/25 13:47:02;;;;;;;7.90;5.15;;;;;;;;;;5007415;28;20097;-81
2023/01/25 13:49:43;;;;;;;7.10;5.65;;;;;;;;;;5025045;28;20509;-81
2023/01/25 13:52:17;;;;;;;7.35;5.60;;;;;;;;;;5025590;28;20053;-81
2023/01/25 13:54:43;;;;;;;12.13;6.32;;;;;;;;;;5007205;28;20034;-81
2023/01/25 13:57:14;;;;;;;6.68;4.90;;;;;;;;;;5019424;28;20029;-81
2023/01/25 13:59:39;;;;;;;8.45;5.20;;;;;;;;;;5017090;28;20028;-80
2023/01/25 14:02:19;;;;;;;7.78;5.40;;;;;;;;;;5017121;28;20349;-82
2023/01/25 14:04:49;;;;;;;6.20;4.93;;;;;;;;;;5016861;28;20440;-81
2023/01/25 14:07:20;;;;;;;9.18;5.70;;;;;;;;;;5016629;28;20025;-81
2023/01/25 14:09:47;;;;;;;7.38;5.55;;;;;;;;;;5016322;28;20396;-81
2023/01/25 14:12:41;;;;;;;8.55;5.18;;;;;;;;;;5034341;28;20033;-82
2023/01/25 14:15:30;;;;;;;7.22;5.50;;;;;;;;;;5016237;28;20021;-82
2023/01/25 14:18:21;;;;;;;6.18;5.25;;;;;;;;;;5005972;28;20495;-81
2023/01/25 14:20:50;;;;;;;13.15;6.05;;;;;;;;;;5017781;28;20032;-81
2023/01/25 14:23:25;;;;;;;9.50;5.95;;;;;;;;;;5016017;28;20060;-82
2023/01/25 14:25:52;;;;;;;7.68;5.75;;;;;;;;;;5033633;28;20028;-82
2023/01/25 14:28:18;;;;;;;11.10;5.70;;;;;;;;;;5016149;28;20112;-82
2023/01/25 14:30:49;;;;;;;7.38;5.88;;;;;;;;;;4999633;28;20528;-83
2023/01/25 14:33:26;;;;;;;8.75;6.20;;;;;;;;;;4999322;28;20049;-81
2023/01/25 14:35:52;;;;;;;6.40;5.10;;;;;;;;;;4999907;28;20455;-80
2023/01/25 14:38:33;;;;;;;6.10;5.22;;;;;;;;;;4999871;28;20120;-80
2023/01/25 14:41:28;;;;;;;7.93;5.70;;;;;;;;;;4999498;28;20448;-80
2023/01/25 14:43:56;;;;;;;7.88;5.78;;;;;;;;;;5016546;28;20033;-83
2023/01/25 14:46:35;;;;;;;6.97;5.40;;;;;;;;;;5016995;28;20472;-83
2023/01/25 14:49:15;;;;;;;6.75;5.70;;;;;;;;;;5016575;28;20060;-82
2023/01/25 14:51:55;;;;;;;6.30;5.00;;;;;;;;;;5016393;28;20017;-82
2023/01/25 14:54:25;;;;;;;8.05;5.80;;;;;;;;;;5033929;28;20021;-82
2023/01/25 14:56:53;;;;;;;5.95;4.70;;;;;;;;;;4999577;28;20495;-82
2023/01/25 14:59:40;;;;;;;9.35;5.05;;;;;;;;;;5016331;28;20492;-82
2023/01/25 15:02:30;;;;;;;8.23;5.43;;;;;;;;;;5015704;28;20025;-82
2023/01/25 15:05:01;;;;;;;5.47;4.53;;;;;;;;;;5033171;28;20392;-81